createdAt,value
2022-10-14T00:00:07.215Z,82.94
2022-10-14T00:05:09.927Z,81.98
2022-10-14T00:10:11.124Z,81.47
2022-10-14T00:15:12.473Z,82.35
2022-10-14T00:20:13.687Z,81.23
2022-10-14T00:25:14.930Z,81.51
2022-10-14T00:30:16.203Z,81.92
2022-10-14T00:35:18.031Z,82.64
2022-10-14T00:40:19.252Z,81.94
2022-10-14T00:45:20.865Z,82.14
2022-10-14T00:50:22.303Z,81.87
2022-10-14T00:55:23.536Z,81.29
2022-10-14T01:00:24.875Z,82.32
2022-10-14T01:05:26.135Z,82.42
2022-10-14T01:10:27.374Z,82.00
2022-10-14T01:15:28.582Z,82.59
2022-10-14T01:20:29.786Z,81.97
2022-10-14T01:25:31.232Z,81.85
2022-10-14T01:30:32.491Z,82.33
2022-10-14T01:35:34.326Z,82.29
2022-10-14T01:40:35.791Z,82.01
2022-10-14T01:45:37.055Z,82.18
2022-10-14T01:50:38.407Z,82.57
2022-10-14T01:55:39.632Z,82.22
2022-10-14T02:00:40.875Z,82.08
2022-10-14T02:05:42.261Z,82.95
2022-10-14T02:10:43.509Z,83.64
2022-10-14T02:15:44.775Z,83.45
2022-10-14T02:20:46.019Z,83.08
2022-10-14T02:25:47.216Z,83.11
2022-10-14T02:30:48.735Z,82.84
2022-10-14T02:35:49.978Z,82.69
2022-10-14T02:40:51.239Z,81.99
2022-10-14T02:45:52.445Z,82.84
2022-10-14T02:50:53.680Z,83.14
2022-10-14T02:55:54.893Z,82.98
2022-10-14T03:00:56.163Z,83.22
2022-10-14T03:05:57.491Z,83.29
2022-10-14T03:10:59.003Z,83.27
2022-10-14T03:16:00.374Z,83.20
2022-10-14T03:21:01.670Z,82.98
2022-10-14T03:26:02.929Z,83.11
2022-10-14T03:31:04.183Z,83.48
2022-10-14T03:36:05.407Z,82.77
2022-10-14T03:41:06.619Z,82.49
2022-10-14T03:46:07.835Z,82.80
2022-10-14T03:51:09.103Z,83.27
2022-10-14T03:56:10.368Z,83.88
2022-10-14T04:01:11.625Z,83.91
2022-10-14T04:06:14.264Z,85.25
2022-10-14T04:11:16.758Z,85.55
2022-10-14T04:16:17.987Z,86.69
2022-10-14T04:21:19.250Z,86.78
2022-10-14T04:26:20.470Z,87.89
2022-10-14T04:31:22.935Z,87.61
2022-10-14T04:36:24.167Z,88.28
2022-10-14T04:41:25.395Z,88.21
2022-10-14T04:46:26.645Z,88.00
2022-10-14T04:51:27.930Z,86.88
2022-10-14T04:56:29.212Z,85.82
2022-10-14T05:01:33.921Z,85.44
2022-10-14T05:06:37.377Z,85.20
2022-10-14T05:11:38.714Z,85.10
2022-10-14T05:16:39.984Z,84.08
2022-10-14T05:21:41.201Z,83.90
2022-10-14T05:26:42.466Z,84.22
2022-10-14T05:31:43.882Z,84.57
2022-10-14T05:36:45.088Z,84.92
2022-10-14T05:41:46.670Z,84.40
2022-10-14T05:46:48.087Z,84.71
2022-10-14T05:51:49.425Z,84.71
2022-10-14T05:56:50.712Z,84.97
2022-10-14T06:01:51.956Z,85.28
2022-10-14T06:06:53.168Z,85.49
2022-10-14T06:11:54.495Z,85.46
2022-10-14T06:16:55.807Z,85.39
2022-10-14T06:21:57.179Z,85.06
2022-10-14T06:26:58.440Z,84.66
2022-10-14T06:31:59.675Z,84.89
2022-10-14T06:37:02.361Z,85.19
2022-10-14T06:42:03.942Z,85.83
2022-10-14T06:47:05.165Z,87.12
2022-10-14T06:52:06.384Z,87.41
2022-10-14T06:57:07.718Z,87.15
2022-10-14T07:02:08.969Z,87.32
2022-10-14T07:07:10.371Z,86.96
2022-10-14T07:12:11.604Z,86.64
2022-10-14T07:17:12.890Z,86.47
2022-10-14T07:22:14.192Z,87.62
2022-10-14T07:27:20.625Z,88.82
2022-10-14T07:32:22.219Z,88.88
2022-10-14T07:37:23.929Z,87.94
2022-10-14T07:42:25.446Z,88.59
2022-10-14T07:47:26.656Z,88.29
2022-10-14T07:52:27.881Z,88.17
2022-10-14T07:57:29.112Z,87.91
2022-10-14T08:02:30.314Z,86.79
2022-10-14T08:07:31.688Z,86.32
2022-10-14T08:12:32.930Z,85.35
2022-10-14T08:17:34.259Z,85.14
2022-10-14T08:22:35.529Z,83.88
2022-10-14T08:27:36.741Z,83.99
2022-10-14T08:32:38.716Z,84.67
2022-10-14T08:37:39.918Z,83.82
2022-10-14T08:42:41.401Z,84.23
2022-10-14T08:47:42.730Z,84.55
2022-10-14T08:52:44.009Z,81.90
2022-10-14T08:57:45.356Z,81.98
2022-10-14T09:02:46.663Z,81.45
2022-10-14T09:07:48.047Z,81.75
2022-10-14T09:12:49.656Z,81.44
2022-10-14T09:17:51.020Z,79.84
2022-10-14T09:27:53.566Z,81.20
2022-10-14T09:32:54.912Z,82.61
2022-10-14T09:37:56.167Z,82.31
2022-10-14T09:42:57.415Z,81.96
2022-10-14T09:47:58.647Z,82.35
2022-10-14T09:53:00.015Z,81.15
2022-10-14T09:58:03.616Z,80.00
2022-10-14T10:03:04.880Z,79.38
2022-10-14T10:08:06.464Z,80.66
2022-10-14T10:13:07.714Z,79.09
2022-10-14T10:18:08.940Z,80.25
2022-10-14T10:23:10.170Z,78.78
2022-10-14T10:28:13.375Z,79.56
2022-10-14T10:33:14.699Z,79.19
2022-10-14T10:38:15.907Z,78.46
2022-10-14T10:43:18.591Z,78.08
2022-10-14T10:48:21.186Z,78.11
2022-10-14T10:53:23.011Z,75.29
2022-10-14T10:58:26.338Z,76.89
2022-10-14T11:03:27.617Z,76.85
2022-10-14T11:08:47.612Z,76.13
2022-10-14T11:13:48.938Z,75.30
2022-10-14T11:18:50.225Z,76.78
2022-10-14T11:23:57.114Z,77.23
2022-10-14T11:28:59.562Z,76.14
2022-10-14T11:34:00.841Z,77.29
2022-10-14T11:39:02.175Z,72.89
2022-10-14T11:44:03.385Z,73.74
2022-10-14T11:49:04.653Z,75.05
2022-10-14T11:54:05.900Z,75.59
2022-10-14T11:59:19.351Z,76.18
2022-10-14T12:04:20.599Z,74.71
2022-10-14T12:09:21.815Z,73.72
2022-10-14T12:14:23.048Z,73.21
2022-10-14T12:19:24.854Z,73.12
2022-10-14T12:24:26.068Z,73.90
2022-10-14T12:29:27.270Z,73.48
2022-10-14T12:34:28.522Z,74.31
2022-10-14T12:39:29.857Z,71.82
2022-10-14T12:44:31.187Z,73.84
2022-10-14T12:49:32.446Z,73.12
2022-10-14T12:54:33.718Z,72.44
2022-10-14T12:59:36.463Z,70.25
2022-10-14T13:04:37.718Z,71.54
2022-10-14T13:09:39.041Z,71.87
2022-10-14T13:14:40.553Z,72.55
2022-10-14T13:19:43.561Z,71.65
2022-10-14T13:24:44.815Z,70.69
2022-10-14T13:29:46.048Z,71.04
2022-10-14T13:34:47.476Z,70.38
2022-10-14T13:39:48.766Z,64.73
2022-10-14T13:44:50.004Z,63.64
2022-10-14T13:49:51.354Z,63.14
2022-10-14T13:54:52.906Z,65.18
2022-10-14T14:05:15.502Z,64.69
2022-10-14T14:10:16.750Z,64.41
2022-10-14T14:15:17.967Z,64.94
2022-10-14T14:20:19.219Z,71.46
2022-10-14T14:25:43.055Z,72.95
2022-10-14T14:30:41.719Z,62.97
2022-10-14T14:35:43.107Z,65.45
2022-10-14T14:40:44.358Z,64.27
2022-10-14T14:45:46.435Z,64.09
2022-10-14T14:50:48.823Z,63.93
2022-10-14T14:55:50.061Z,67.73
2022-10-14T15:00:51.673Z,70.25
2022-10-14T15:05:53.032Z,71.80
2022-10-14T15:10:54.337Z,70.82
2022-10-14T15:15:55.629Z,70.67
2022-10-14T15:20:59.843Z,72.27
2022-10-14T15:26:01.082Z,72.79
2022-10-14T15:31:05.671Z,74.10
2022-10-14T15:36:07.865Z,73.75
2022-10-14T15:41:09.105Z,73.73
2022-10-14T15:46:29.134Z,74.18
2022-10-14T15:51:30.595Z,75.31
2022-10-14T15:56:31.868Z,75.04
2022-10-14T16:01:34.537Z,74.88
2022-10-14T16:06:37.152Z,74.31
2022-10-14T16:11:38.437Z,74.50
2022-10-14T16:16:39.686Z,74.37
2022-10-14T16:21:41.164Z,78.22
2022-10-14T16:26:42.370Z,79.94
2022-10-14T16:31:43.651Z,75.29
2022-10-14T16:36:45.005Z,76.37
2022-10-14T16:41:46.256Z,75.85
2022-10-14T16:47:06.320Z,77.24
2022-10-14T16:52:07.569Z,76.30
2022-10-14T16:57:08.978Z,76.73
2022-10-14T17:02:11.052Z,78.82
2022-10-14T17:07:14.710Z,78.89
2022-10-14T17:12:16.708Z,78.42
2022-10-14T17:17:18.178Z,78.53
2022-10-14T17:22:20.824Z,79.83
2022-10-14T17:27:24.213Z,79.00
2022-10-14T17:32:28.067Z,78.37
2022-10-14T17:37:30.897Z,79.94
2022-10-14T17:42:32.736Z,81.62
2022-10-14T17:47:34.106Z,80.65
2022-10-14T17:52:35.312Z,79.49
2022-10-14T17:57:37.272Z,80.24
2022-10-14T18:02:38.600Z,80.21
2022-10-14T18:07:39.943Z,79.87
2022-10-14T18:12:41.692Z,80.24
2022-10-14T18:17:43.271Z,80.39
2022-10-14T18:22:44.595Z,80.10
2022-10-14T18:27:46.552Z,79.57
2022-10-14T18:32:47.801Z,83.33
2022-10-14T18:37:49.055Z,77.94
2022-10-14T18:42:50.345Z,71.38
2022-10-14T18:47:52.986Z,72.38
2022-10-14T18:52:56.015Z,73.62
2022-10-14T18:57:57.238Z,70.19
2022-10-14T19:02:58.458Z,70.80
2022-10-14T19:08:00.227Z,73.28
2022-10-14T19:13:04.082Z,74.18
2022-10-14T19:18:05.387Z,75.48
2022-10-14T19:23:06.959Z,76.95
2022-10-14T19:28:09.600Z,78.37
2022-10-14T19:33:10.938Z,79.39
2022-10-14T19:38:12.146Z,79.35
2022-10-14T19:43:13.378Z,79.37
2022-10-14T19:48:14.595Z,79.83
2022-10-14T19:53:15.857Z,80.40
2022-10-14T19:58:17.090Z,80.30
2022-10-14T20:03:18.302Z,81.04
2022-10-14T20:08:19.642Z,81.45
2022-10-14T20:13:20.887Z,81.69
2022-10-14T20:18:22.123Z,81.31
2022-10-14T20:23:23.357Z,80.86
2022-10-14T20:28:24.615Z,80.74
2022-10-14T20:33:25.932Z,80.49
2022-10-14T20:38:27.228Z,80.31
2022-10-14T20:43:28.455Z,82.13
2022-10-14T20:48:30.528Z,81.58
2022-10-14T20:53:31.826Z,82.05
2022-10-14T20:58:33.083Z,82.51
2022-10-14T21:03:34.367Z,83.63
2022-10-14T21:08:35.748Z,82.13
2022-10-14T21:13:36.971Z,81.77
2022-10-14T21:18:38.184Z,81.85
2022-10-14T21:23:39.392Z,81.95
2022-10-14T21:28:40.636Z,82.51
2022-10-14T21:33:41.889Z,82.16
2022-10-14T21:38:43.285Z,82.22
2022-10-14T21:43:44.643Z,82.47
2022-10-14T21:48:45.919Z,82.98
2022-10-14T21:53:47.306Z,82.74
2022-10-14T21:58:48.766Z,82.69
2022-10-14T22:03:50.004Z,82.08
2022-10-14T22:08:51.213Z,82.83
2022-10-14T22:13:52.427Z,83.36
2022-10-14T22:18:53.789Z,83.50
2022-10-14T22:23:55.075Z,83.28
2022-10-14T22:28:56.397Z,82.36
2022-10-14T22:33:57.617Z,81.86
2022-10-14T22:38:58.935Z,82.63
2022-10-14T22:44:00.173Z,82.29
2022-10-14T22:49:02.119Z,83.36
2022-10-14T22:54:03.423Z,83.39
2022-10-14T22:59:04.694Z,83.17
2022-10-14T23:04:05.971Z,83.37
2022-10-14T23:09:07.235Z,83.26
2022-10-14T23:14:08.454Z,83.09
2022-10-14T23:19:09.675Z,83.19
2022-10-14T23:24:10.893Z,83.00
2022-10-14T23:29:12.111Z,82.50
2022-10-14T23:34:13.494Z,82.59
2022-10-14T23:39:14.738Z,83.18
2022-10-14T23:44:15.997Z,83.67
2022-10-14T23:49:31.788Z,84.58
2022-10-14T23:54:33.100Z,85.15
2022-10-14T23:59:34.302Z,87.03
